sensor_id;sensor_type;location;lat;lon;timestamp;P1;durP1;ratioP1;P2;durP2;ratioP2
39728;SDS011;25402;42.004;23.088;2023-12-20T00:02:16;34.47;;;14.38;;
39728;SDS011;25402;42.004;23.088;2023-12-20T00:04:45;35.42;;;15.80;;
39728;SDS011;25402;42.004;23.088;2023-12-20T00:07:12;35.72;;;15.75;;
39728;SDS011;25402;42.004;23.088;2023-12-20T00:09:39;35.10;;;14.70;;
39728;SDS011;25402;42.004;23.088;2023-12-20T00:12:07;33.30;;;14.43;;
39728;SDS011;25402;42.004;23.088;2023-12-20T00:14:34;41.78;;;15.32;;
39728;SDS011;25402;42.004;23.088;2023-12-20T00:17:01;39.20;;;15.38;;
39728;SDS011;25402;42.004;23.088;2023-12-20T00:19:28;37.22;;;14.70;;
39728;SDS011;25402;42.004;23.088;2023-12-20T00:21:57;33.60;;;14.95;;
39728;SDS011;25402;42.004;23.088;2023-12-20T00:24:24;42.08;;;14.98;;
39728;SDS011;25402;42.004;23.088;2023-12-20T00:26:51;36.42;;;15.02;;
39728;SDS011;25402;42.004;23.088;2023-12-20T00:29:17;35.95;;;15.02;;
39728;SDS011;25402;42.004;23.088;2023-12-20T00:31:46;32.90;;;13.75;;
39728;SDS011;25402;42.004;23.088;2023-12-20T00:34:13;32.47;;;14.02;;
39728;SDS011;25402;42.004;23.088;2023-12-20T00:36:40;34.78;;;13.95;;
39728;SDS011;25402;42.004;23.088;2023-12-20T00:39:09;37.50;;;13.95;;
39728;SDS011;25402;42.004;23.088;2023-12-20T00:41:36;35.80;;;14.38;;
39728;SDS011;25402;42.004;23.088;2023-12-20T00:44:03;33.35;;;14.18;;
39728;SDS011;25402;42.004;23.088;2023-12-20T00:46:31;35.10;;;14.07;;
39728;SDS011;25402;42.004;23.088;2023-12-20T00:48:58;33.65;;;14.18;;
39728;SDS011;25402;42.004;23.088;2023-12-20T00:51:25;37.63;;;13.40;;
39728;SDS011;25402;42.004;23.088;2023-12-20T00:53:52;35.83;;;14.00;;
39728;SDS011;25402;42.004;23.088;2023-12-20T00:56:21;32.72;;;13.25;;
39728;SDS011;25402;42.004;23.088;2023-12-20T00:58:49;35.53;;;13.50;;
39728;SDS011;25402;42.004;23.088;2023-12-20T01:01:16;30.65;;;13.73;;
39728;SDS011;25402;42.004;23.088;2023-12-20T01:03:43;36.67;;;14.63;;
39728;SDS011;25402;42.004;23.088;2023-12-20T01:06:10;32.17;;;13.07;;
39728;SDS011;25402;42.004;23.088;2023-12-20T01:08:37;35.28;;;13.35;;
39728;SDS011;25402;42.004;23.088;2023-12-20T01:11:04;37.30;;;14.13;;
39728;SDS011;25402;42.004;23.088;2023-12-20T01:13:33;31.83;;;13.32;;
39728;SDS011;25402;42.004;23.088;2023-12-20T01:16:00;32.65;;;13.27;;
39728;SDS011;25402;42.004;23.088;2023-12-20T01:18:28;27.42;;;12.45;;
39728;SDS011;25402;42.004;23.088;2023-12-20T01:20:55;28.15;;;12.40;;
39728;SDS011;25402;42.004;23.088;2023-12-20T01:23:22;36.38;;;13.23;;
39728;SDS011;25402;42.004;23.088;2023-12-20T01:25:49;41.70;;;13.65;;
39728;SDS011;25402;42.004;23.088;2023-12-20T01:28:16;30.50;;;13.13;;
39728;SDS011;25402;42.004;23.088;2023-12-20T01:30:45;33.28;;;13.35;;
39728;SDS011;25402;42.004;23.088;2023-12-20T01:33:12;27.33;;;12.52;;
39728;SDS011;25402;42.004;23.088;2023-12-20T01:35:39;34.58;;;13.95;;
39728;SDS011;25402;42.004;23.088;2023-12-20T01:38:06;29.63;;;12.65;;
39728;SDS011;25402;42.004;23.088;2023-12-20T01:40:33;30.77;;;12.90;;
39728;SDS011;25402;42.004;23.088;2023-12-20T01:43:00;28.67;;;12.50;;
39728;SDS011;25402;42.004;23.088;2023-12-20T01:45:28;30.67;;;12.82;;
39728;SDS011;25402;42.004;23.088;2023-12-20T01:47:57;31.67;;;13.02;;
39728;SDS011;25402;42.004;23.088;2023-12-20T01:50:26;35.47;;;13.55;;
39728;SDS011;25402;42.004;23.088;2023-12-20T01:52:54;34.63;;;13.40;;
39728;SDS011;25402;42.004;23.088;2023-12-20T01:55:24;31.48;;;13.40;;
39728;SDS011;25402;42.004;23.088;2023-12-20T01:57:52;28.63;;;12.38;;
39728;SDS011;25402;42.004;23.088;2023-12-20T02:00:19;38.50;;;13.73;;
39728;SDS011;25402;42.004;23.088;2023-12-20T02:02:51;38.58;;;14.82;;
39728;SDS011;25402;42.004;23.088;2023-12-20T02:05:21;37.85;;;14.60;;
39728;SDS011;25402;42.004;23.088;2023-12-20T02:07:50;35.85;;;13.98;;
39728;SDS011;25402;42.004;23.088;2023-12-20T02:10:18;32.67;;;13.25;;
39728;SDS011;25402;42.004;23.088;2023-12-20T02:12:45;36.78;;;14.93;;
39728;SDS011;25402;42.004;23.088;2023-12-20T02:15:12;31.42;;;14.48;;
39728;SDS011;25402;42.004;23.088;2023-12-20T02:17:39;38.38;;;14.65;;
39728;SDS011;25402;42.004;23.088;2023-12-20T02:20:06;34.83;;;14.30;;
39728;SDS011;25402;42.004;23.088;2023-12-20T02:22:35;34.47;;;13.95;;
39728;SDS011;25402;42.004;23.088;2023-12-20T02:25:02;34.67;;;12.75;;
39728;SDS011;25402;42.004;23.088;2023-12-20T02:27:30;25.48;;;10.70;;
39728;SDS011;25402;42.004;23.088;2023-12-20T02:29:57;25.90;;;11.68;;
39728;SDS011;25402;42.004;23.088;2023-12-20T02:32:24;25.90;;;10.57;;
39728;SDS011;25402;42.004;23.088;2023-12-20T02:34:52;28.38;;;11.50;;
39728;SDS011;25402;42.004;23.088;2023-12-20T02:37:19;28.25;;;11.93;;
39728;SDS011;25402;42.004;23.088;2023-12-20T02:39:48;31.33;;;11.98;;
39728;SDS011;25402;42.004;23.088;2023-12-20T02:42:15;27.33;;;11.85;;
39728;SDS011;25402;42.004;23.088;2023-12-20T02:44:42;24.10;;;10.73;;
39728;SDS011;25402;42.004;23.088;2023-12-20T02:47:09;30.48;;;12.55;;
39728;SDS011;25402;42.004;23.088;2023-12-20T02:49:36;28.98;;;12.15;;
39728;SDS011;25402;42.004;23.088;2023-12-20T02:52:04;29.55;;;12.57;;
39728;SDS011;25402;42.004;23.088;2023-12-20T02:54:31;27.67;;;12.10;;
39728;SDS011;25402;42.004;23.088;2023-12-20T02:56:59;33.17;;;12.05;;
39728;SDS011;25402;42.004;23.088;2023-12-20T02:59:27;33.70;;;12.10;;
39728;SDS011;25402;42.004;23.088;2023-12-20T03:01:54;26.60;;;11.80;;
39728;SDS011;25402;42.004;23.088;2023-12-20T03:04:21;32.55;;;12.88;;
39728;SDS011;25402;42.004;23.088;2023-12-20T03:06:48;31.23;;;12.40;;
39728;SDS011;25402;42.004;23.088;2023-12-20T03:09:15;26.40;;;11.80;;
39728;SDS011;25402;42.004;23.088;2023-12-20T03:11:42;26.63;;;10.90;;
39728;SDS011;25402;42.004;23.088;2023-12-20T03:14:11;25.73;;;11.27;;
39728;SDS011;25402;42.004;23.088;2023-12-20T03:16:38;26.17;;;11.70;;
39728;SDS011;25402;42.004;23.088;2023-12-20T03:19:05;33.25;;;11.50;;
39728;SDS011;25402;42.004;23.088;2023-12-20T03:21:32;25.65;;;10.10;;
39728;SDS011;25402;42.004;23.088;2023-12-20T03:23:59;26.48;;;10.20;;
39728;SDS011;25402;42.004;23.088;2023-12-20T03:26:26;28.40;;;11.52;;
39728;SDS011;25402;42.004;23.088;2023-12-20T03:28:53;26.73;;;10.45;;
39728;SDS011;25402;42.004;23.088;2023-12-20T03:31:21;32.45;;;12.00;;
39728;SDS011;25402;42.004;23.088;2023-12-20T03:33:49;30.27;;;12.65;;
39728;SDS011;25402;42.004;23.088;2023-12-20T03:36:16;27.45;;;11.57;;
39728;SDS011;25402;42.004;23.088;2023-12-20T03:38:43;28.80;;;11.38;;
39728;SDS011;25402;42.004;23.088;2023-12-20T03:41:10;28.92;;;12.00;;
39728;SDS011;25402;42.004;23.088;2023-12-20T03:43:37;31.80;;;12.90;;
39728;SDS011;25402;42.004;23.088;2023-12-20T03:46:04;33.33;;;12.95;;
39728;SDS011;25402;42.004;23.088;2023-12-20T03:48:33;27.77;;;10.82;;
39728;SDS011;25402;42.004;23.088;2023-12-20T03:51:00;27.85;;;11.52;;
39728;SDS011;25402;42.004;23.088;2023-12-20T03:53:27;34.92;;;11.98;;
39728;SDS011;25402;42.004;23.088;2023-12-20T03:55:55;45.25;;;15.48;;
39728;SDS011;25402;42.004;23.088;2023-12-20T03:58:22;33.38;;;14.00;;
39728;SDS011;25402;42.004;23.088;2023-12-20T04:00:49;26.58;;;10.60;;
39728;SDS011;25402;42.004;23.088;2023-12-20T04:03:16;33.15;;;12.68;;
39728;SDS011;25402;42.004;23.088;2023-12-20T04:05:44;25.35;;;10.60;;
39728;SDS011;25402;42.004;23.088;2023-12-20T04:08:11;27.13;;;11.40;;
39728;SDS011;25402;42.004;23.088;2023-12-20T04:10:38;21.38;;;9.50;;
39728;SDS011;25402;42.004;23.088;2023-12-20T04:13:06;23.05;;;11.25;;
39728;SDS011;25402;42.004;23.088;2023-12-20T04:15:33;26.67;;;11.85;;
39728;SDS011;25402;42.004;23.088;2023-12-20T04:18:00;24.90;;;11.55;;
39728;SDS011;25402;42.004;23.088;2023-12-20T04:20:27;25.73;;;12.10;;
39728;SDS011;25402;42.004;23.088;2023-12-20T04:22:55;29.15;;;11.88;;
39728;SDS011;25402;42.004;23.088;2023-12-20T04:25:22;28.63;;;12.77;;
39728;SDS011;25402;42.004;23.088;2023-12-20T04:27:50;28.05;;;12.40;;
39728;SDS011;25402;42.004;23.088;2023-12-20T04:30:17;26.10;;;10.82;;
39728;SDS011;25402;42.004;23.088;2023-12-20T04:32:44;28.02;;;11.35;;
39728;SDS011;25402;42.004;23.088;2023-12-20T04:35:11;31.13;;;12.52;;
39728;SDS011;25402;42.004;23.088;2023-12-20T04:37:38;32.83;;;12.10;;
39728;SDS011;25402;42.004;23.088;2023-12-20T04:40:07;30.95;;;11.85;;
39728;SDS011;25402;42.004;23.088;2023-12-20T04:42:34;34.25;;;12.07;;
39728;SDS011;25402;42.004;23.088;2023-12-20T04:45:02;28.95;;;9.75;;
39728;SDS011;25402;42.004;23.088;2023-12-20T04:47:29;36.10;;;10.35;;
39728;SDS011;25402;42.004;23.088;2023-12-20T04:49:56;27.98;;;9.70;;
39728;SDS011;25402;42.004;23.088;2023-12-20T04:52:24;32.75;;;10.23;;
39728;SDS011;25402;42.004;23.088;2023-12-20T04:54:51;26.10;;;10.90;;
39728;SDS011;25402;42.004;23.088;2023-12-20T04:57:20;22.50;;;11.13;;
39728;SDS011;25402;42.004;23.088;2023-12-20T04:59:47;23.98;;;12.10;;
39728;SDS011;25402;42.004;23.088;2023-12-20T05:02:14;30.45;;;12.80;;
39728;SDS011;25402;42.004;23.088;2023-12-20T05:04:41;25.25;;;12.05;;
39728;SDS011;25402;42.004;23.088;2023-12-20T05:07:08;32.97;;;14.93;;
39728;SDS011;25402;42.004;23.088;2023-12-20T05:09:35;39.67;;;14.77;;
39728;SDS011;25402;42.004;23.088;2023-12-20T05:12:02;42.67;;;16.77;;
39728;SDS011;25402;42.004;23.088;2023-12-20T05:14:31;40.05;;;18.10;;
39728;SDS011;25402;42.004;23.088;2023-12-20T05:16:58;47.38;;;18.02;;
39728;SDS011;25402;42.004;23.088;2023-12-20T05:19:25;36.85;;;16.77;;
39728;SDS011;25402;42.004;23.088;2023-12-20T05:21:52;31.67;;;13.75;;
39728;SDS011;25402;42.004;23.088;2023-12-20T05:24:21;51.72;;;21.52;;
39728;SDS011;25402;42.004;23.088;2023-12-20T05:26:48;36.25;;;14.65;;
39728;SDS011;25402;42.004;23.088;2023-12-20T05:29:15;33.97;;;14.23;;
39728;SDS011;25402;42.004;23.088;2023-12-20T05:31:44;35.78;;;13.45;;
39728;SDS011;25402;42.004;23.088;2023-12-20T05:34:11;30.25;;;12.88;;
39728;SDS011;25402;42.004;23.088;2023-12-20T05:36:38;36.55;;;13.55;;
39728;SDS011;25402;42.004;23.088;2023-12-20T05:39:06;38.33;;;16.23;;
39728;SDS011;25402;42.004;23.088;2023-12-20T05:41:34;31.65;;;14.68;;
39728;SDS011;25402;42.004;23.088;2023-12-20T05:44:01;41.45;;;16.45;;
39728;SDS011;25402;42.004;23.088;2023-12-20T05:46:28;64.57;;;27.48;;
39728;SDS011;25402;42.004;23.088;2023-12-20T05:48:56;36.92;;;16.30;;
39728;SDS011;25402;42.004;23.088;2023-12-20T05:51:23;36.58;;;14.80;;
39728;SDS011;25402;42.004;23.088;2023-12-20T05:53:50;51.03;;;21.73;;
39728;SDS011;25402;42.004;23.088;2023-12-20T05:56:17;45.80;;;20.60;;
39728;SDS011;25402;42.004;23.088;2023-12-20T05:58:45;61.38;;;24.83;;
39728;SDS011;25402;42.004;23.088;2023-12-20T06:01:12;27.88;;;12.25;;
39728;SDS011;25402;42.004;23.088;2023-12-20T06:03:42;25.15;;;10.73;;
39728;SDS011;25402;42.004;23.088;2023-12-20T06:06:12;24.35;;;10.95;;
39728;SDS011;25402;42.004;23.088;2023-12-20T06:08:40;25.25;;;11.18;;
39728;SDS011;25402;42.004;23.088;2023-12-20T06:11:08;26.75;;;11.43;;
39728;SDS011;25402;42.004;23.088;2023-12-20T06:13:36;29.38;;;12.88;;
39728;SDS011;25402;42.004;23.088;2023-12-20T06:16:05;33.67;;;14.27;;
39728;SDS011;25402;42.004;23.088;2023-12-20T06:18:32;33.05;;;13.43;;
39728;SDS011;25402;42.004;23.088;2023-12-20T06:21:02;32.15;;;12.20;;
39728;SDS011;25402;42.004;23.088;2023-12-20T06:23:31;30.70;;;13.43;;
39728;SDS011;25402;42.004;23.088;2023-12-20T06:25:58;32.25;;;13.40;;
39728;SDS011;25402;42.004;23.088;2023-12-20T06:28:25;29.05;;;11.75;;
39728;SDS011;25402;42.004;23.088;2023-12-20T06:30:52;24.45;;;11.40;;
39728;SDS011;25402;42.004;23.088;2023-12-20T06:33:20;28.23;;;12.00;;
39728;SDS011;25402;42.004;23.088;2023-12-20T06:35:47;31.58;;;13.38;;
39728;SDS011;25402;42.004;23.088;2023-12-20T06:38:14;29.33;;;13.50;;
39728;SDS011;25402;42.004;23.088;2023-12-20T06:40:43;29.95;;;13.07;;
39728;SDS011;25402;42.004;23.088;2023-12-20T06:43:10;26.35;;;12.30;;
39728;SDS011;25402;42.004;23.088;2023-12-20T06:45:38;32.08;;;13.57;;
39728;SDS011;25402;42.004;23.088;2023-12-20T06:48:06;30.98;;;12.68;;
39728;SDS011;25402;42.004;23.088;2023-12-20T06:50:33;31.40;;;13.57;;
39728;SDS011;25402;42.004;23.088;2023-12-20T06:53:05;37.10;;;14.50;;
39728;SDS011;25402;42.004;23.088;2023-12-20T06:55:33;30.80;;;12.40;;
39728;SDS011;25402;42.004;23.088;2023-12-20T06:58:02;27.58;;;11.90;;
39728;SDS011;25402;42.004;23.088;2023-12-20T07:00:30;30.45;;;13.55;;
39728;SDS011;25402;42.004;23.088;2023-12-20T07:02:57;30.95;;;11.77;;
39728;SDS011;25402;42.004;23.088;2023-12-20T07:05:26;33.83;;;13.88;;
39728;SDS011;25402;42.004;23.088;2023-12-20T07:07:57;37.83;;;14.70;;
39728;SDS011;25402;42.004;23.088;2023-12-20T07:10:25;39.40;;;13.73;;
39728;SDS011;25402;42.004;23.088;2023-12-20T07:12:54;45.78;;;13.75;;
39728;SDS011;25402;42.004;23.088;2023-12-20T07:15:27;32.03;;;13.48;;
39728;SDS011;25402;42.004;23.088;2023-12-20T07:17:56;43.42;;;15.23;;
39728;SDS011;25402;42.004;23.088;2023-12-20T07:20:25;33.17;;;13.90;;
39728;SDS011;25402;42.004;23.088;2023-12-20T07:22:56;30.50;;;12.93;;
39728;SDS011;25402;42.004;23.088;2023-12-20T07:25:24;26.58;;;12.15;;
39728;SDS011;25402;42.004;23.088;2023-12-20T07:27:51;44.05;;;13.45;;
39728;SDS011;25402;42.004;23.088;2023-12-20T07:30:19;76.07;;;14.75;;
39728;SDS011;25402;42.004;23.088;2023-12-20T07:32:48;57.45;;;14.48;;
39728;SDS011;25402;42.004;23.088;2023-12-20T07:35:17;33.55;;;12.68;;
39728;SDS011;25402;42.004;23.088;2023-12-20T07:37:45;33.25;;;14.02;;
39728;SDS011;25402;42.004;23.088;2023-12-20T07:40:12;34.15;;;14.30;;
39728;SDS011;25402;42.004;23.088;2023-12-20T07:42:41;35.78;;;14.23;;
39728;SDS011;25402;42.004;23.088;2023-12-20T07:45:10;35.30;;;13.32;;
39728;SDS011;25402;42.004;23.088;2023-12-20T07:47:37;32.60;;;12.93;;
39728;SDS011;25402;42.004;23.088;2023-12-20T07:50:08;32.30;;;13.32;;
39728;SDS011;25402;42.004;23.088;2023-12-20T07:52:35;35.25;;;13.75;;
39728;SDS011;25402;42.004;23.088;2023-12-20T07:55:03;35.03;;;13.35;;
39728;SDS011;25402;42.004;23.088;2023-12-20T07:57:32;39.60;;;15.68;;
39728;SDS011;25402;42.004;23.088;2023-12-20T07:59:59;37.95;;;14.50;;
39728;SDS011;25402;42.004;23.088;2023-12-20T08:02:29;84.00;;;33.92;;
39728;SDS011;25402;42.004;23.088;2023-12-20T08:04:56;111.78;;;46.55;;
39728;SDS011;25402;42.004;23.088;2023-12-20T08:07:24;108.45;;;44.08;;
39728;SDS011;25402;42.004;23.088;2023-12-20T08:09:51;87.32;;;34.88;;
39728;SDS011;25402;42.004;23.088;2023-12-20T08:12:20;69.97;;;28.25;;
39728;SDS011;25402;42.004;23.088;2023-12-20T08:14:47;56.58;;;22.95;;
39728;SDS011;25402;42.004;23.088;2023-12-20T08:17:15;37.22;;;15.43;;
39728;SDS011;25402;42.004;23.088;2023-12-20T08:19:44;41.90;;;15.57;;
39728;SDS011;25402;42.004;23.088;2023-12-20T08:22:11;35.92;;;14.93;;
39728;SDS011;25402;42.004;23.088;2023-12-20T08:24:48;39.45;;;16.80;;
39728;SDS011;25402;42.004;23.088;2023-12-20T08:27:15;37.75;;;15.27;;
39728;SDS011;25402;42.004;23.088;2023-12-20T08:29:43;33.53;;;14.88;;
39728;SDS011;25402;42.004;23.088;2023-12-20T08:32:11;37.13;;;15.15;;
39728;SDS011;25402;42.004;23.088;2023-12-20T08:34:38;38.20;;;15.63;;
39728;SDS011;25402;42.004;23.088;2023-12-20T08:37:05;41.03;;;17.27;;
39728;SDS011;25402;42.004;23.088;2023-12-20T08:39:32;47.47;;;18.42;;
39728;SDS011;25402;42.004;23.088;2023-12-20T08:42:01;37.10;;;16.98;;
39728;SDS011;25402;42.004;23.088;2023-12-20T08:44:28;37.63;;;16.02;;
39728;SDS011;25402;42.004;23.088;2023-12-20T08:46:55;50.55;;;18.05;;
39728;SDS011;25402;42.004;23.088;2023-12-20T08:49:22;42.72;;;17.98;;
39728;SDS011;25402;42.004;23.088;2023-12-20T08:51:50;49.55;;;18.60;;
39728;SDS011;25402;42.004;23.088;2023-12-20T08:54:17;48.08;;;18.85;;
39728;SDS011;25402;42.004;23.088;2023-12-20T08:56:45;48.72;;;18.77;;
39728;SDS011;25402;42.004;23.088;2023-12-20T08:59:14;50.45;;;18.77;;
39728;SDS011;25402;42.004;23.088;2023-12-20T09:01:41;48.65;;;20.55;;
39728;SDS011;25402;42.004;23.088;2023-12-20T09:04:08;51.95;;;19.48;;
39728;SDS011;25402;42.004;23.088;2023-12-20T09:06:35;46.05;;;19.45;;
39728;SDS011;25402;42.004;23.088;2023-12-20T09:09:02;44.10;;;18.98;;
39728;SDS011;25402;42.004;23.088;2023-12-20T09:11:29;43.40;;;18.83;;
39728;SDS011;25402;42.004;23.088;2023-12-20T09:13:56;52.15;;;19.67;;
39728;SDS011;25402;42.004;23.088;2023-12-20T09:16:25;49.92;;;19.95;;
39728;SDS011;25402;42.004;23.088;2023-12-20T09:18:52;50.30;;;20.85;;
39728;SDS011;25402;42.004;23.088;2023-12-20T09:21:19;54.08;;;22.63;;
39728;SDS011;25402;42.004;23.088;2023-12-20T09:23:46;51.20;;;21.85;;
39728;SDS011;25402;42.004;23.088;2023-12-20T09:26:13;53.17;;;21.67;;
39728;SDS011;25402;42.004;23.088;2023-12-20T09:28:40;56.70;;;21.55;;
39728;SDS011;25402;42.004;23.088;2023-12-20T09:31:09;49.35;;;19.90;;
39728;SDS011;25402;42.004;23.088;2023-12-20T09:33:39;46.10;;;20.60;;
39728;SDS011;25402;42.004;23.088;2023-12-20T09:36:07;56.83;;;22.17;;
39728;SDS011;25402;42.004;23.088;2023-12-20T09:38:34;46.97;;;20.98;;
39728;SDS011;25402;42.004;23.088;2023-12-20T09:41:01;52.95;;;21.25;;
39728;SDS011;25402;42.004;23.088;2023-12-20T09:43:29;53.58;;;23.02;;
39728;SDS011;25402;42.004;23.088;2023-12-20T09:45:57;58.03;;;22.50;;
39728;SDS011;25402;42.004;23.088;2023-12-20T09:48:28;50.40;;;21.73;;
39728;SDS011;25402;42.004;23.088;2023-12-20T09:50:57;50.00;;;21.33;;
39728;SDS011;25402;42.004;23.088;2023-12-20T09:53:25;56.58;;;23.00;;
39728;SDS011;25402;42.004;23.088;2023-12-20T09:55:57;54.15;;;23.42;;
39728;SDS011;25402;42.004;23.088;2023-12-20T09:58:26;53.50;;;23.67;;
39728;SDS011;25402;42.004;23.088;2023-12-20T10:00:53;57.15;;;23.00;;
39728;SDS011;25402;42.004;23.088;2023-12-20T10:03:23;69.47;;;30.63;;
39728;SDS011;25402;42.004;23.088;2023-12-20T10:05:52;85.00;;;34.40;;
39728;SDS011;25402;42.004;23.088;2023-12-20T10:08:24;79.60;;;33.28;;
39728;SDS011;25402;42.004;23.088;2023-12-20T10:10:51;45.50;;;18.55;;
39728;SDS011;25402;42.004;23.088;2023-12-20T10:13:22;52.95;;;22.05;;
39728;SDS011;25402;42.004;23.088;2023-12-20T10:15:50;50.45;;;23.83;;
39728;SDS011;25402;42.004;23.088;2023-12-20T10:18:17;42.50;;;19.30;;
39728;SDS011;25402;42.004;23.088;2023-12-20T10:20:44;44.45;;;19.80;;
39728;SDS011;25402;42.004;23.088;2023-12-20T10:23:11;58.97;;;26.75;;
39728;SDS011;25402;42.004;23.088;2023-12-20T10:25:40;65.18;;;31.33;;
39728;SDS011;25402;42.004;23.088;2023-12-20T10:28:09;66.53;;;26.98;;
39728;SDS011;25402;42.004;23.088;2023-12-20T10:30:37;62.90;;;26.08;;
39728;SDS011;25402;42.004;23.088;2023-12-20T10:33:05;53.33;;;24.42;;
39728;SDS011;25402;42.004;23.088;2023-12-20T10:35:33;48.45;;;22.77;;
39728;SDS011;25402;42.004;23.088;2023-12-20T10:38:01;65.82;;;30.42;;
39728;SDS011;25402;42.004;23.088;2023-12-20T10:40:30;62.90;;;26.80;;
39728;SDS011;25402;42.004;23.088;2023-12-20T10:42:59;71.60;;;32.53;;
39728;SDS011;25402;42.004;23.088;2023-12-20T10:45:29;62.90;;;27.55;;
39728;SDS011;25402;42.004;23.088;2023-12-20T10:47:56;55.97;;;25.42;;
39728;SDS011;25402;42.004;23.088;2023-12-20T10:50:25;52.83;;;23.52;;
39728;SDS011;25402;42.004;23.088;2023-12-20T10:52:55;55.58;;;22.85;;
39728;SDS011;25402;42.004;23.088;2023-12-20T10:55:22;60.20;;;25.70;;
39728;SDS011;25402;42.004;23.088;2023-12-20T10:57:50;67.28;;;26.73;;
39728;SDS011;25402;42.004;23.088;2023-12-20T11:00:19;75.15;;;28.13;;
39728;SDS011;25402;42.004;23.088;2023-12-20T11:02:49;55.88;;;24.73;;
39728;SDS011;25402;42.004;23.088;2023-12-20T11:05:22;65.88;;;24.17;;
39728;SDS011;25402;42.004;23.088;2023-12-20T11:07:58;53.80;;;22.38;;
39728;SDS011;25402;42.004;23.088;2023-12-20T11:10:36;62.38;;;26.02;;
39728;SDS011;25402;42.004;23.088;2023-12-20T11:13:08;53.47;;;23.77;;
39728;SDS011;25402;42.004;23.088;2023-12-20T11:15:44;58.05;;;24.33;;
39728;SDS011;25402;42.004;23.088;2023-12-20T11:18:12;67.30;;;28.83;;
39728;SDS011;25402;42.004;23.088;2023-12-20T11:20:39;63.63;;;27.67;;
39728;SDS011;25402;42.004;23.088;2023-12-20T11:23:08;53.60;;;23.17;;
39728;SDS011;25402;42.004;23.088;2023-12-20T11:25:46;58.03;;;24.85;;
39728;SDS011;25402;42.004;23.088;2023-12-20T11:28:14;76.40;;;33.28;;
39728;SDS011;25402;42.004;23.088;2023-12-20T11:30:49;66.35;;;25.95;;
39728;SDS011;25402;42.004;23.088;2023-12-20T11:33:20;57.90;;;24.60;;
39728;SDS011;25402;42.004;23.088;2023-12-20T11:35:48;69.32;;;28.50;;
39728;SDS011;25402;42.004;23.088;2023-12-20T11:38:15;68.10;;;26.98;;
39728;SDS011;25402;42.004;23.088;2023-12-20T11:40:43;58.85;;;25.92;;
39728;SDS011;25402;42.004;23.088;2023-12-20T11:43:10;72.25;;;29.25;;
39728;SDS011;25402;42.004;23.088;2023-12-20T11:45:37;75.07;;;27.95;;
39728;SDS011;25402;42.004;23.088;2023-12-20T11:48:16;64.45;;;27.80;;
39728;SDS011;25402;42.004;23.088;2023-12-20T11:50:45;71.05;;;30.13;;
39728;SDS011;25402;42.004;23.088;2023-12-20T11:53:12;74.00;;;30.23;;
39728;SDS011;25402;42.004;23.088;2023-12-20T11:55:39;70.30;;;28.75;;
39728;SDS011;25402;42.004;23.088;2023-12-20T11:58:06;62.33;;;28.08;;
39728;SDS011;25402;42.004;23.088;2023-12-20T12:00:34;71.40;;;29.30;;
39728;SDS011;25402;42.004;23.088;2023-12-20T12:03:01;70.65;;;28.10;;
39728;SDS011;25402;42.004;23.088;2023-12-20T12:05:31;68.18;;;28.83;;
39728;SDS011;25402;42.004;23.088;2023-12-20T12:07:59;71.82;;;29.77;;
39728;SDS011;25402;42.004;23.088;2023-12-20T12:10:28;72.63;;;29.73;;
39728;SDS011;25402;42.004;23.088;2023-12-20T12:12:55;66.20;;;27.90;;
39728;SDS011;25402;42.004;23.088;2023-12-20T12:15:22;65.70;;;28.00;;
39728;SDS011;25402;42.004;23.088;2023-12-20T12:17:53;66.80;;;28.25;;
39728;SDS011;25402;42.004;23.088;2023-12-20T12:20:21;78.47;;;30.85;;
39728;SDS011;25402;42.004;23.088;2023-12-20T12:22:58;80.18;;;30.30;;
39728;SDS011;25402;42.004;23.088;2023-12-20T12:25:26;82.95;;;32.67;;
39728;SDS011;25402;42.004;23.088;2023-12-20T12:27:55;72.45;;;30.33;;
39728;SDS011;25402;42.004;23.088;2023-12-20T12:30:22;81.80;;;32.58;;
39728;SDS011;25402;42.004;23.088;2023-12-20T12:32:50;68.18;;;28.90;;
39728;SDS011;25402;42.004;23.088;2023-12-20T12:35:17;70.30;;;30.00;;
39728;SDS011;25402;42.004;23.088;2023-12-20T12:37:44;69.05;;;29.08;;
39728;SDS011;25402;42.004;23.088;2023-12-20T12:40:14;76.90;;;28.23;;
39728;SDS011;25402;42.004;23.088;2023-12-20T12:42:43;67.35;;;26.67;;
39728;SDS011;25402;42.004;23.088;2023-12-20T12:45:11;51.05;;;20.90;;
39728;SDS011;25402;42.004;23.088;2023-12-20T12:47:38;55.67;;;22.73;;
39728;SDS011;25402;42.004;23.088;2023-12-20T12:50:06;50.25;;;21.65;;
39728;SDS011;25402;42.004;23.088;2023-12-20T12:52:34;48.38;;;21.92;;
39728;SDS011;25402;42.004;23.088;2023-12-20T12:55:01;49.70;;;21.13;;
39728;SDS011;25402;42.004;23.088;2023-12-20T12:57:31;43.63;;;20.58;;
39728;SDS011;25402;42.004;23.088;2023-12-20T12:59:58;53.10;;;23.30;;
39728;SDS011;25402;42.004;23.088;2023-12-20T13:02:25;66.65;;;25.45;;
39728;SDS011;25402;42.004;23.088;2023-12-20T13:04:52;54.80;;;24.70;;
39728;SDS011;25402;42.004;23.088;2023-12-20T13:07:19;63.58;;;27.85;;
39728;SDS011;25402;42.004;23.088;2023-12-20T13:09:46;56.83;;;27.27;;
39728;SDS011;25402;42.004;23.088;2023-12-20T13:12:14;71.65;;;32.65;;
39728;SDS011;25402;42.004;23.088;2023-12-20T13:14:42;53.80;;;25.00;;
39728;SDS011;25402;42.004;23.088;2023-12-20T13:17:10;55.83;;;25.15;;
39728;SDS011;25402;42.004;23.088;2023-12-20T13:19:37;51.75;;;24.42;;
39728;SDS011;25402;42.004;23.088;2023-12-20T13:22:05;59.10;;;25.58;;
39728;SDS011;25402;42.004;23.088;2023-12-20T13:24:33;50.55;;;25.20;;
39728;SDS011;25402;42.004;23.088;2023-12-20T13:27:00;58.42;;;27.33;;
39728;SDS011;25402;42.004;23.088;2023-12-20T13:29:27;77.63;;;30.30;;
39728;SDS011;25402;42.004;23.088;2023-12-20T13:31:55;70.43;;;29.15;;
39728;SDS011;25402;42.004;23.088;2023-12-20T13:34:22;84.18;;;31.60;;
39728;SDS011;25402;42.004;23.088;2023-12-20T13:36:50;73.72;;;32.25;;
39728;SDS011;25402;42.004;23.088;2023-12-20T13:39:17;87.32;;;33.72;;
39728;SDS011;25402;42.004;23.088;2023-12-20T13:41:44;81.05;;;34.00;;
39728;SDS011;25402;42.004;23.088;2023-12-20T13:44:11;92.80;;;36.60;;
39728;SDS011;25402;42.004;23.088;2023-12-20T13:46:39;84.05;;;34.72;;
39728;SDS011;25402;42.004;23.088;2023-12-20T13:49:08;79.55;;;33.45;;
39728;SDS011;25402;42.004;23.088;2023-12-20T13:51:37;84.05;;;33.55;;
39728;SDS011;25402;42.004;23.088;2023-12-20T13:54:07;91.50;;;33.83;;
39728;SDS011;25402;42.004;23.088;2023-12-20T13:56:36;82.05;;;34.45;;
39728;SDS011;25402;42.004;23.088;2023-12-20T13:59:05;76.30;;;34.30;;
39728;SDS011;25402;42.004;23.088;2023-12-20T14:04:09;87.15;;;35.17;;
39728;SDS011;25402;42.004;23.088;2023-12-20T14:06:37;84.65;;;35.95;;
39728;SDS011;25402;42.004;23.088;2023-12-20T14:09:06;82.63;;;34.60;;
39728;SDS011;25402;42.004;23.088;2023-12-20T14:11:34;92.07;;;35.20;;
39728;SDS011;25402;42.004;23.088;2023-12-20T14:14:06;88.82;;;34.42;;
39728;SDS011;25402;42.004;23.088;2023-12-20T14:16:34;85.00;;;33.58;;